Time;durP1;ratioP1;P1;durP2;ratioP2;P2;SDS_P1;SDS_P2;PMS_P1;PMS_P2;Temp;Humidity;BMP_temperature;BMP_pressure;BME280_temperature;BME280_humidity;BME280_pressure;Samples;Min_cycle;Max_cycle;Signal;HPM_P1;HPM_P2
2021/09/09 00:02:08;;;;;;;28.23;26.23;;;18.00;99.90;;;;;;4973362;28;20467;-72
2021/09/09 00:04:35;;;;;;;27.87;25.70;;;17.90;99.90;;;;;;4973383;28;20519;-72
2021/09/09 00:07:01;;;;;;;28.17;25.77;;;18.00;99.90;;;;;;4973168;28;20793;-72
2021/09/09 00:09:29;;;;;;;29.63;27.33;;;18.00;99.90;;;;;;4973126;28;20455;-72
2021/09/09 00:11:57;;;;;;;31.73;29.20;;;18.00;99.90;;;;;;4973163;28;20447;-72
2021/09/09 00:14:23;;;;;;;32.90;30.30;;;18.00;99.90;;;;;;4973237;28;20799;-72
2021/09/09 00:16:50;;;;;;;30.37;28.10;;;18.00;99.90;;;;;;4973054;28;20480;-73
2021/09/09 00:19:17;;;;;;;32.20;29.63;;;18.00;99.90;;;;;;4972977;28;20459;-72
2021/09/09 00:21:44;;;;;;;30.87;28.27;;;17.90;99.90;;;;;;4972734;28;20784;-72
2021/09/09 00:24:11;;;;;;;31.07;28.47;;;17.90;99.90;;;;;;4973004;28;20448;-73
2021/09/09 00:26:39;;;;;;;31.70;29.30;;;17.90;99.90;;;;;;4972742;28;20456;-72
2021/09/09 00:29:06;;;;;;;32.33;29.20;;;17.80;99.90;;;;;;4973005;28;20814;-72
2021/09/09 00:31:33;;;;;;;30.33;27.90;;;17.80;99.90;;;;;;4972785;28;20447;-72
2021/09/09 00:33:59;;;;;;;29.23;27.10;;;17.80;99.90;;;;;;4972734;28;20459;-72
2021/09/09 00:36:26;;;;;;;27.67;25.37;;;17.80;99.90;;;;;;4972738;28;20487;-72
2021/09/09 00:38:53;;;;;;;28.07;25.73;;;17.70;99.90;;;;;;4972708;28;20802;-72
2021/09/09 00:41:21;;;;;;;45.47;28.27;;;17.70;99.90;;;;;;4973265;28;20804;-72
2021/09/09 00:43:49;;;;;;;28.70;26.40;;;17.70;99.90;;;;;;4972235;28;20462;-72
2021/09/09 00:46:21;;;;;;;27.80;25.60;;;17.70;99.90;;;;;;4972387;28;20483;-72
2021/09/09 00:48:48;;;;;;;27.13;25.13;;;17.70;99.90;;;;;;4972701;28;20463;-72
2021/09/09 00:51:15;;;;;;;27.77;25.90;;;17.70;99.90;;;;;;4972274;28;20452;-72
2021/09/09 00:53:42;;;;;;;29.60;27.30;;;17.60;99.90;;;;;;4972317;28;20474;-72
2021/09/09 00:56:09;;;;;;;31.40;28.63;;;17.60;99.90;;;;;;4972494;28;20491;-72
2021/09/09 00:58:39;;;;;;;30.63;28.53;;;17.60;99.90;;;;;;4972468;28;20459;-72
2021/09/09 01:01:07;;;;;;;30.03;27.60;;;17.50;99.90;;;;;;4972449;28;20574;-72
2021/09/09 01:03:34;;;;;;;29.10;26.83;;;17.40;99.90;;;;;;4971899;28;21032;-73
2021/09/09 01:06:00;;;;;;;28.77;26.67;;;17.40;99.90;;;;;;4972012;28;20910;-73
2021/09/09 01:08:27;;;;;;;30.27;28.00;;;17.40;99.90;;;;;;4972013;28;20463;-71
2021/09/09 01:10:54;;;;;;;28.47;25.93;;;17.40;99.90;;;;;;4972030;28;20837;-71
2021/09/09 01:13:20;;;;;;;26.03;23.87;;;17.40;99.90;;;;;;4972032;28;20455;-71
2021/09/09 01:15:47;;;;;;;29.63;27.23;;;17.40;99.90;;;;;;4971713;28;20463;-72
2021/09/09 01:18:16;;;;;;;28.33;26.00;;;17.40;99.90;;;;;;4971566;28;21023;-71
2021/09/09 01:20:44;;;;;;;29.87;27.47;;;17.40;99.90;;;;;;4971795;28;20463;-72
2021/09/09 01:23:11;;;;;;;31.37;28.20;;;17.40;99.90;;;;;;4971866;28;20455;-72
2021/09/09 01:25:39;;;;;;;28.23;25.97;;;17.40;99.90;;;;;;4971888;28;20455;-70
2021/09/09 01:28:06;;;;;;;27.97;26.00;;;17.30;99.90;;;;;;4971747;28;20452;-71
2021/09/09 01:30:32;;;;;;;28.50;26.20;;;17.30;99.90;;;;;;4971536;28;20452;-71
2021/09/09 01:33:01;;;;;;;30.53;28.30;;;17.30;99.90;;;;;;4971407;28;20459;-71
2021/09/09 01:35:28;;;;;;;34.90;31.83;;;17.20;99.90;;;;;;4971514;28;20483;-71
2021/09/09 01:37:55;;;;;;;28.70;26.53;;;17.20;99.90;;;;;;4970684;28;20491;-71
2021/09/09 01:40:28;;;;;;;30.73;27.97;;;17.20;99.90;;;;;;4971649;28;20451;-72
2021/09/09 01:42:57;;;;;;;31.73;29.30;;;17.20;99.90;;;;;;4971437;28;20456;-72
2021/09/09 01:45:24;;;;;;;30.70;28.50;;;17.20;99.90;;;;;;4971563;28;20447;-71
2021/09/09 01:47:51;;;;;;;29.30;27.00;;;17.30;99.90;;;;;;4971607;28;20482;-71
2021/09/09 01:50:18;;;;;;;29.97;27.43;;;17.30;99.90;;;;;;4971165;28;20452;-72
2021/09/09 01:52:44;;;;;;;30.80;28.30;;;17.30;99.90;;;;;;4971316;28;20714;-72
2021/09/09 01:55:11;;;;;;;28.47;26.37;;;17.30;99.90;;;;;;4971086;28;20456;-71
2021/09/09 01:57:38;;;;;;;29.27;27.27;;;17.20;99.90;;;;;;4971277;28;20483;-71
2021/09/09 02:00:07;;;;;;;30.33;27.83;;;17.20;99.90;;;;;;4971387;28;20448;-71
2021/09/09 02:02:34;;;;;;;31.10;27.90;;;17.10;99.90;;;;;;4970948;28;20459;-71
2021/09/09 02:05:01;;;;;;;31.80;29.40;;;17.10;99.90;;;;;;4970783;28;20484;-71
2021/09/09 02:07:28;;;;;;;31.07;28.70;;;17.10;99.90;;;;;;4970854;28;20454;-72
2021/09/09 02:09:54;;;;;;;30.33;28.10;;;17.10;99.90;;;;;;4971260;28;20456;-72
2021/09/09 02:12:21;;;;;;;27.57;25.47;;;17.10;99.90;;;;;;4971148;28;20459;-72
2021/09/09 02:14:48;;;;;;;32.07;29.47;;;17.10;99.90;;;;;;4970949;28;20478;-71
2021/09/09 02:17:16;;;;;;;31.90;29.30;;;17.10;99.90;;;;;;4970858;28;20495;-71
2021/09/09 02:19:42;;;;;;;33.07;30.17;;;17.10;99.90;;;;;;4970881;28;20467;-71
2021/09/09 02:22:09;;;;;;;31.10;28.50;;;17.10;99.90;;;;;;4971198;28;20456;-71
2021/09/09 02:24:36;;;;;;;29.30;26.97;;;17.10;99.90;;;;;;4971315;28;20451;-72
2021/09/09 02:27:03;;;;;;;28.73;26.73;;;17.00;99.90;;;;;;4970986;28;20451;-72
2021/09/09 02:29:30;;;;;;;28.40;26.30;;;17.00;99.90;;;;;;4970962;28;20452;-71
2021/09/09 02:31:56;;;;;;;29.67;27.43;;;17.00;99.90;;;;;;4971004;28;20456;-71
2021/09/09 02:34:24;;;;;;;29.63;27.40;;;17.00;99.90;;;;;;4971234;28;20447;-71
2021/09/09 02:36:51;;;;;;;29.70;27.50;;;16.90;99.90;;;;;;4970999;28;20495;-71
2021/09/09 02:39:18;;;;;;;31.67;29.07;;;16.90;99.90;;;;;;4970755;28;20487;-71
2021/09/09 02:41:44;;;;;;;30.77;28.47;;;16.90;99.90;;;;;;4970741;28;20452;-71
2021/09/09 02:44:11;;;;;;;29.97;27.80;;;16.90;99.90;;;;;;4970662;28;20462;-71
2021/09/09 02:46:38;;;;;;;30.20;27.63;;;16.90;99.90;;;;;;4971006;28;20452;-72
2021/09/09 02:49:04;;;;;;;30.03;27.53;;;16.90;99.90;;;;;;4973140;28;20463;-72
2021/09/09 02:51:32;;;;;;;31.93;29.43;;;16.90;99.90;;;;;;4974458;28;20968;-71
2021/09/09 02:53:59;;;;;;;28.73;26.60;;;16.90;99.90;;;;;;4974560;28;20478;-71
2021/09/09 02:56:26;;;;;;;29.43;27.03;;;16.90;99.90;;;;;;4974559;28;20456;-72
2021/09/09 02:58:53;;;;;;;31.73;28.63;;;16.90;99.90;;;;;;4974562;28;20487;-72
2021/09/09 03:01:19;;;;;;;28.63;26.40;;;16.90;99.90;;;;;;4974354;28;20472;-72
2021/09/09 03:03:46;;;;;;;32.13;29.40;;;16.80;99.90;;;;;;4974031;28;20541;-72
2021/09/09 03:06:13;;;;;;;27.80;25.80;;;16.80;99.90;;;;;;4974327;28;20451;-72
2021/09/09 03:08:41;;;;;;;30.33;27.33;;;16.80;99.90;;;;;;4974347;28;20956;-72
2021/09/09 03:11:07;;;;;;;28.97;26.97;;;16.70;99.90;;;;;;4974457;28;20451;-71
2021/09/09 03:13:34;;;;;;;29.70;27.40;;;16.70;99.90;;;;;;4974223;28;20451;-71
2021/09/09 03:16:01;;;;;;;29.43;27.13;;;16.60;99.90;;;;;;4974080;28;20632;-71
2021/09/09 03:18:27;;;;;;;30.30;27.90;;;16.60;99.90;;;;;;4973878;28;20491;-72
2021/09/09 03:20:55;;;;;;;27.90;25.53;;;16.60;99.90;;;;;;4974328;28;20462;-72
2021/09/09 03:23:21;;;;;;;29.80;27.47;;;16.60;99.90;;;;;;4974395;28;20459;-72
2021/09/09 03:25:49;;;;;;;29.57;27.30;;;16.60;99.90;;;;;;4973866;28;20574;-71
2021/09/09 03:28:16;;;;;;;29.70;27.47;;;16.60;99.90;;;;;;4973741;28;20455;-72
2021/09/09 03:30:43;;;;;;;29.23;26.90;;;16.60;99.90;;;;;;4973774;28;20485;-71
2021/09/09 03:33:09;;;;;;;32.40;29.80;;;16.60;99.90;;;;;;4973882;28;20801;-72
2021/09/09 03:35:36;;;;;;;30.57;28.47;;;16.60;99.90;;;;;;4973867;28;20482;-71
2021/09/09 03:38:03;;;;;;;30.20;27.87;;;16.60;99.90;;;;;;4973614;28;20491;-71
2021/09/09 03:40:30;;;;;;;28.40;26.30;;;16.60;99.90;;;;;;4973671;28;20736;-71
2021/09/09 03:42:58;;;;;;;29.07;27.03;;;16.60;99.90;;;;;;4973465;28;20456;-71
2021/09/09 03:45:24;;;;;;;29.40;27.30;;;16.70;99.90;;;;;;4973703;28;20455;-71
2021/09/09 03:47:51;;;;;;;29.73;27.60;;;16.60;99.90;;;;;;4973727;28;20942;-71
2021/09/09 03:50:18;;;;;;;28.07;26.00;;;16.60;99.90;;;;;;4973603;28;20460;-72
2021/09/09 03:52:44;;;;;;;30.40;27.97;;;16.60;99.90;;;;;;4973463;28;20456;-72
2021/09/09 03:55:12;;;;;;;28.47;26.07;;;16.50;99.90;;;;;;4973332;28;20452;-71
2021/09/09 03:57:39;;;;;;;30.23;28.13;;;16.50;99.90;;;;;;4973330;28;20495;-72
2021/09/09 04:00:09;;;;;;;30.00;27.47;;;16.50;99.90;;;;;;4972555;28;20454;-71
2021/09/09 04:02:36;;;;;;;30.57;28.30;;;16.50;99.90;;;;;;4973347;28;20938;-72
2021/09/09 04:05:03;;;;;;;30.27;28.10;;;16.50;99.90;;;;;;4972882;28;20483;-72
2021/09/09 04:07:30;;;;;;;28.60;26.10;;;16.50;99.90;;;;;;4973282;28;20448;-72
2021/09/09 04:09:56;;;;;;;31.13;28.43;;;16.40;99.90;;;;;;4973052;28;20452;-72
2021/09/09 04:12:23;;;;;;;29.87;27.37;;;16.40;99.90;;;;;;4973257;28;20832;-72
2021/09/09 04:14:50;;;;;;;30.13;27.73;;;16.50;99.90;;;;;;4973212;28;20464;-72
2021/09/09 04:17:18;;;;;;;29.90;27.60;;;16.50;99.90;;;;;;4972847;28;20492;-73
2021/09/09 04:19:45;;;;;;;28.40;26.40;;;16.50;99.90;;;;;;4972907;28;20494;-71
2021/09/09 04:22:11;;;;;;;30.77;28.50;;;16.50;99.90;;;;;;4972881;28;20456;-72
2021/09/09 04:24:38;;;;;;;30.77;28.20;;;16.60;99.90;;;;;;4973151;28;20458;-72
2021/09/09 04:27:05;;;;;;;31.63;28.63;;;16.60;99.90;;;;;;4973061;28;20455;-72
2021/09/09 04:29:32;;;;;;;30.13;27.60;;;16.60;99.90;;;;;;4972642;28;20474;-72
2021/09/09 04:31:59;;;;;;;29.80;27.60;;;16.70;99.90;;;;;;4972733;28;20452;-72
2021/09/09 04:34:27;;;;;;;28.87;26.50;;;16.70;99.90;;;;;;4972697;28;20463;-72
2021/09/09 04:36:54;;;;;;;28.67;26.43;;;16.70;99.90;;;;;;4972963;28;20962;-73
2021/09/09 04:39:20;;;;;;;29.30;27.20;;;16.70;99.90;;;;;;4972836;28;20496;-72
2021/09/09 04:41:47;;;;;;;30.20;27.53;;;16.70;99.90;;;;;;4972712;28;20451;-72
2021/09/09 04:44:14;;;;;;;29.40;27.10;;;16.60;99.90;;;;;;4972454;28;20460;-71
2021/09/09 04:46:40;;;;;;;30.97;28.43;;;16.60;99.90;;;;;;4972513;28;20451;-72
2021/09/09 04:49:07;;;;;;;30.47;28.10;;;16.60;99.90;;;;;;4972723;28;20444;-72
2021/09/09 04:51:35;;;;;;;28.47;26.23;;;16.60;99.90;;;;;;4972676;28;20459;-72
2021/09/09 04:54:02;;;;;;;30.87;28.20;;;16.60;99.90;;;;;;4972270;28;20459;-71
2021/09/09 04:56:28;;;;;;;29.57;27.00;;;16.50;99.90;;;;;;4972230;28;20460;-72
2021/09/09 04:58:55;;;;;;;32.13;29.43;;;16.60;99.90;;;;;;4972065;28;20487;-72
2021/09/09 05:01:22;;;;;;;30.33;27.83;;;16.60;99.90;;;;;;4972464;28;20479;-72
2021/09/09 05:03:48;;;;;;;32.83;30.10;;;16.60;99.90;;;;;;4972219;28;20833;-72
2021/09/09 05:06:15;;;;;;;32.97;29.90;;;16.60;99.90;;;;;;4972184;28;21009;-72
2021/09/09 05:08:43;;;;;;;32.53;29.57;;;16.60;99.90;;;;;;4972094;28;20456;-71
2021/09/09 05:11:11;;;;;;;32.40;30.00;;;16.60;99.90;;;;;;4972107;28;20492;-72
2021/09/09 05:13:38;;;;;;;32.07;29.13;;;16.60;99.90;;;;;;4972302;28;20498;-71
2021/09/09 05:16:05;;;;;;;33.03;30.10;;;16.60;99.90;;;;;;4972203;28;20474;-72
2021/09/09 05:18:32;;;;;;;31.23;28.60;;;16.60;99.90;;;;;;4971886;28;21031;-72
2021/09/09 05:20:59;;;;;;;32.93;30.00;;;16.60;99.90;;;;;;4971843;28;20458;-72
2021/09/09 05:23:25;;;;;;;30.57;28.17;;;16.60;99.90;;;;;;4971973;28;20452;-71
2021/09/09 05:25:53;;;;;;;33.63;30.20;;;16.50;99.90;;;;;;4972146;28;20452;-72
2021/09/09 05:28:20;;;;;;;31.43;28.57;;;16.60;99.90;;;;;;4971937;28;20452;-72
2021/09/09 05:30:47;;;;;;;31.00;28.20;;;16.50;99.90;;;;;;4971743;28;20448;-72
2021/09/09 05:33:14;;;;;;;32.50;29.50;;;16.60;99.90;;;;;;4971648;28;20950;-71
2021/09/09 05:35:41;;;;;;;31.43;28.70;;;16.60;99.90;;;;;;4971836;28;20456;-71
2021/09/09 05:38:08;;;;;;;32.83;30.07;;;16.70;99.90;;;;;;4971672;28;21024;-72
2021/09/09 05:40:35;;;;;;;33.03;30.23;;;16.80;99.90;;;;;;4971671;28;20922;-71
2021/09/09 05:43:03;;;;;;;30.97;28.30;;;16.80;99.90;;;;;;4971464;28;20946;-72
2021/09/09 05:45:30;;;;;;;30.07;27.37;;;16.90;99.90;;;;;;4971417;28;20900;-72
2021/09/09 05:47:57;;;;;;;31.37;28.37;;;16.90;99.90;;;;;;4971352;28;20502;-72
2021/09/09 05:50:24;;;;;;;29.33;27.07;;;17.20;99.90;;;;;;4971723;28;20452;-72
2021/09/09 05:52:51;;;;;;;31.30;28.60;;;17.60;99.90;;;;;;4971655;28;20977;-72
2021/09/09 05:55:18;;;;;;;31.17;28.37;;;17.80;99.90;;;;;;4971435;28;20452;-72
2021/09/09 05:57:44;;;;;;;29.80;27.50;;;17.90;99.90;;;;;;4971476;28;20447;-72
2021/09/09 06:00:13;;;;;;;31.07;28.47;;;17.90;99.90;;;;;;4971328;28;20459;-72
2021/09/09 06:02:44;;;;;;;29.83;27.13;;;18.00;99.90;;;;;;4971379;28;20456;-71
2021/09/09 06:05:12;;;;;;;29.83;27.00;;;18.30;99.90;;;;;;4971317;28;20461;-72
2021/09/09 06:07:39;;;;;;;27.33;24.50;;;18.80;99.90;;;;;;4971485;28;20460;-72
2021/09/09 06:10:08;;;;;;;28.40;26.00;;;19.10;99.90;;;;;;4971564;28;20452;-72
2021/09/09 06:12:35;;;;;;;28.10;25.57;;;19.30;99.90;;;;;;4971505;28;20458;-72
2021/09/09 06:15:03;;;;;;;29.83;26.93;;;19.50;99.90;;;;;;4971332;28;20460;-72
2021/09/09 06:17:31;;;;;;;28.43;26.23;;;19.80;99.90;;;;;;4971179;28;20451;-72
2021/09/09 06:19:57;;;;;;;28.30;26.27;;;19.80;99.90;;;;;;4971062;28;20490;-72
2021/09/09 06:22:24;;;;;;;26.90;24.67;;;19.70;99.90;;;;;;4971205;28;20451;-73
2021/09/09 06:24:51;;;;;;;28.73;25.80;;;19.50;99.90;;;;;;4975127;28;20455;-73
2021/09/09 06:27:17;;;;;;;27.87;25.20;;;19.60;99.90;;;;;;4975076;28;20456;-73
2021/09/09 06:29:44;;;;;;;26.40;24.60;;;19.70;99.90;;;;;;4974916;28;20452;-72
2021/09/09 06:32:11;;;;;;;26.73;24.30;;;19.90;99.90;;;;;;4974742;28;20455;-72
2021/09/09 06:34:39;;;;;;;28.33;25.53;;;20.10;99.90;;;;;;4974978;28;20466;-72
2021/09/09 06:37:06;;;;;;;29.37;26.63;;;19.90;99.90;;;;;;4975044;28;20458;-73
2021/09/09 06:39:33;;;;;;;27.90;25.80;;;19.90;99.90;;;;;;4974812;28;21005;-73
2021/09/09 06:41:59;;;;;;;28.37;26.07;;;20.40;99.90;;;;;;4974777;28;20463;-73
2021/09/09 06:44:26;;;;;;;27.50;25.10;;;20.80;99.90;;;;;;4974747;28;20962;-73
2021/09/09 06:46:53;;;;;;;26.50;24.37;;;21.10;99.90;;;;;;4975164;28;20829;-72
2021/09/09 06:49:19;;;;;;;28.17;25.90;;;21.40;99.90;;;;;;4974887;28;20474;-74
2021/09/09 06:51:47;;;;;;;27.80;25.50;;;21.60;99.90;;;;;;4974713;28;20478;-73
2021/09/09 06:54:16;;;;;;;24.83;23.10;;;21.70;99.90;;;;;;4974653;28;20451;-73
2021/09/09 06:56:42;;;;;;;28.27;25.90;;;21.40;99.90;;;;;;4974406;28;20498;-72
2021/09/09 06:59:09;;;;;;;26.30;24.40;;;21.80;99.90;;;;;;4974709;28;20506;-73
2021/09/09 07:01:36;;;;;;;26.80;24.40;;;22.20;99.90;;;;;;4974621;28;20842;-73
2021/09/09 07:04:02;;;;;;;27.20;25.10;;;22.50;99.90;;;;;;4974214;28;20479;-73
2021/09/09 07:06:29;;;;;;;26.67;24.57;;;22.10;99.90;;;;;;4974262;28;20458;-74
2021/09/09 07:08:57;;;;;;;28.63;26.30;;;22.00;99.90;;;;;;4974247;28;20458;-73
2021/09/09 07:11:24;;;;;;;28.30;26.07;;;22.10;99.90;;;;;;4974413;28;20447;-73
2021/09/09 07:13:50;;;;;;;27.40;24.97;;;22.60;99.90;;;;;;4974327;28;20459;-73
2021/09/09 07:16:17;;;;;;;28.20;25.63;;;22.70;99.90;;;;;;4974252;28;20454;-73
2021/09/09 07:18:44;;;;;;;29.27;26.43;;;22.50;99.90;;;;;;4974093;28;20891;-73
2021/09/09 07:21:10;;;;;;;27.60;25.30;;;22.40;99.90;;;;;;4974152;28;20451;-74
2021/09/09 07:23:37;;;;;;;26.60;24.70;;;22.60;99.90;;;;;;4974387;28;20459;-73
2021/09/09 07:26:05;;;;;;;27.27;25.07;;;22.30;99.90;;;;;;4974136;28;20463;-73
2021/09/09 07:28:32;;;;;;;27.40;24.60;;;22.50;99.90;;;;;;4973995;28;20448;-74
2021/09/09 07:30:58;;;;;;;28.50;25.90;;;22.50;99.90;;;;;;4973898;28;20463;-72
2021/09/09 07:33:25;;;;;;;25.20;23.27;;;22.50;99.90;;;;;;4973981;28;20458;-73
2021/09/09 07:35:52;;;;;;;26.47;24.33;;;22.50;99.90;;;;;;4972999;28;20462;-73
2021/09/09 07:38:18;;;;;;;25.43;23.53;;;22.70;99.90;;;;;;4973936;28;20459;-73
2021/09/09 07:40:45;;;;;;;24.70;23.10;;;23.30;99.90;;;;;;4973938;28;21029;-73
2021/09/09 07:43:14;;;;;;;26.13;24.03;;;24.00;99.90;;;;;;4973877;28;20829;-74
2021/09/09 07:45:40;;;;;;;24.00;22.20;;;24.90;99.90;;;;;;4973864;28;20939;-74
2021/09/09 07:48:08;;;;;;;23.70;22.00;;;25.30;99.90;;;;;;4973887;28;20791;-74
2021/09/09 07:50:35;;;;;;;24.10;22.37;;;25.60;99.90;;;;;;4973835;28;20518;-74
2021/09/09 07:53:01;;;;;;;24.17;22.60;;;25.50;99.90;;;;;;4973600;28;20930;-74
2021/09/09 07:55:28;;;;;;;24.03;22.43;;;25.30;99.90;;;;;;4973419;28;20456;-74
2021/09/09 07:57:55;;;;;;;23.83;22.13;;;24.70;99.90;;;;;;4973496;28;20448;-74
2021/09/09 08:00:23;;;;;;;20.70;19.40;;;24.50;99.90;;;;;;4973326;28;20502;-73
2021/09/09 08:02:49;;;;;;;23.00;21.13;;;24.30;99.90;;;;;;4973074;28;20462;-74
2021/09/09 08:05:17;;;;;;;21.73;20.20;;;24.30;99.90;;;;;;4973391;28;20515;-74
2021/09/09 08:07:45;;;;;;;23.50;21.40;;;24.20;99.90;;;;;;4973117;28;20483;-73
2021/09/09 08:10:14;;;;;;;21.20;19.80;;;24.30;99.90;;;;;;4973039;28;20454;-73
2021/09/09 08:12:41;;;;;;;21.33;20.03;;;24.60;99.90;;;;;;4973234;28;21004;-74
2021/09/09 08:15:09;;;;;;;21.83;20.23;;;25.00;99.90;;;;;;4973389;28;20946;-74
2021/09/09 08:17:37;;;;;;;22.20;20.87;;;25.00;99.90;;;;;;4973472;28;20455;-74
2021/09/09 08:20:05;;;;;;;20.60;19.20;;;24.70;99.90;;;;;;4973136;28;20846;-74
2021/09/09 08:22:31;;;;;;;21.80;20.00;;;24.60;99.90;;;;;;4973022;28;20456;-74
2021/09/09 08:24:58;;;;;;;22.93;20.97;;;25.00;99.90;;;;;;4972918;28;20485;-74
2021/09/09 08:27:29;;;;;;;22.53;21.13;;;25.10;99.90;;;;;;4972916;28;20463;-74
2021/09/09 08:29:56;;;;;;;20.93;19.67;;;25.30;99.90;;;;;;4973015;28;20587;-74
2021/09/09 08:32:24;;;;;;;20.77;19.57;;;25.70;99.90;;;;;;4973071;28;20463;-74
2021/09/09 08:34:52;;;;;;;20.47;19.17;;;25.90;99.90;;;;;;4973003;28;20463;-75
2021/09/09 08:37:19;;;;;;;24.20;22.23;;;26.30;99.90;;;;;;4972874;28;20456;-74
2021/09/09 08:39:45;;;;;;;20.63;19.43;;;26.50;99.40;;;;;;4972712;28;20491;-74
2021/09/09 08:42:12;;;;;;;21.80;20.40;;;26.50;99.10;;;;;;4972539;28;20968;-74
2021/09/09 08:44:39;;;;;;;23.13;21.50;;;26.90;98.50;;;;;;4972661;28;20456;-74
2021/09/09 08:47:10;;;;;;;21.37;20.17;;;27.00;98.10;;;;;;4972801;28;20463;-74
2021/09/09 08:49:37;;;;;;;23.80;22.20;;;26.60;98.90;;;;;;4972871;28;20444;-74
2021/09/09 08:52:06;;;;;;;21.33;20.03;;;26.60;98.70;;;;;;4972564;28;20463;-73
2021/09/09 08:54:33;;;;;;;21.17;19.87;;;26.50;99.10;;;;;;4972457;28;20456;-74
2021/09/09 08:57:00;;;;;;;22.07;20.60;;;26.70;98.70;;;;;;4972246;28;20645;-73
2021/09/09 08:59:27;;;;;;;21.83;20.30;;;27.10;98.10;;;;;;4972270;28;20491;-74
2021/09/09 09:02:03;;;;;;;21.10;19.73;;;27.90;96.20;;;;;;4972531;28;20475;-75
2021/09/09 09:04:31;;;;;;;21.10;19.70;;;29.30;94.60;;;;;;4972204;28;20479;-74
2021/09/09 09:06:59;;;;;;;23.00;21.37;;;30.60;91.90;;;;;;4972071;28;20462;-74
2021/09/09 09:09:32;;;;;;;21.60;20.40;;;31.00;90.20;;;;;;4972152;28;20456;-75
2021/09/09 09:11:59;;;;;;;22.10;20.73;;;31.50;88.70;;;;;;4972029;28;20678;-74
2021/09/09 09:14:26;;;;;;;21.30;19.83;;;32.30;85.10;;;;;;4972014;28;20833;-74
2021/09/09 09:16:55;;;;;;;22.80;21.50;;;33.40;80.70;;;;;;4972207;28;20484;-74
2021/09/09 09:19:23;;;;;;;22.20;20.77;;;33.00;80.20;;;;;;4971953;28;20498;-74
2021/09/09 09:21:53;;;;;;;22.07;20.57;;;32.40;80.20;;;;;;4972055;28;20475;-75
2021/09/09 09:24:21;;;;;;;20.37;19.17;;;32.10;79.50;;;;;;4971771;28;20447;-75
2021/09/09 09:27:22;;;;;;;20.60;19.50;;;31.90;79.20;;;;;;4971720;28;20796;-74
2021/09/09 09:30:02;;;;;;;20.07;19.17;;;31.20;80.60;;;;;;4893255;29;20438;-75
2021/09/09 09:32:28;;;;;;;20.80;19.70;;;30.50;81.90;;;;;;4893303;29;20470;-74
2021/09/09 09:35:10;;;;;;;21.03;19.93;;;29.40;85.70;;;;;;4935120;28;20451;-73
2021/09/09 09:37:36;;;;;;;21.70;20.40;;;28.90;87.70;;;;;;4971989;28;20483;-74
2021/09/09 09:40:08;;;;;;;21.23;19.80;;;28.60;89.90;;;;;;4971461;28;20491;-72
2021/09/09 09:42:43;;;;;;;20.03;18.87;;;28.70;89.70;;;;;;4971604;28;20444;-73
2021/09/09 09:45:12;;;;;;;20.03;18.97;;;29.20;88.20;;;;;;4971873;28;20451;-73
2021/09/09 09:47:39;;;;;;;20.60;19.13;;;28.80;88.70;;;;;;4971664;28;20514;-73
2021/09/09 09:50:16;;;;;;;20.83;19.20;;;28.50;90.40;;;;;;4971556;28;20507;-72
2021/09/09 09:52:43;;;;;;;20.87;19.40;;;28.70;90.10;;;;;;4971535;28;20462;-74
2021/09/09 09:55:11;;;;;;;21.00;19.60;;;28.70;90.30;;;;;;4971483;28;20551;-73
2021/09/09 09:57:52;;;;;;;20.53;19.33;;;28.80;90.20;;;;;;4970887;28;20456;-73
2021/09/09 10:00:19;;;;;;;22.00;20.60;;;29.40;88.80;;;;;;4971255;28;20903;-74
2021/09/09 10:02:46;;;;;;;21.80;20.40;;;30.40;86.10;;;;;;4971026;28;20452;-72
2021/09/09 10:05:13;;;;;;;21.17;19.80;;;31.40;83.80;;;;;;4971367;28;20455;-72
2021/09/09 10:07:40;;;;;;;21.73;20.43;;;31.90;81.90;;;;;;4971346;28;20458;-74
2021/09/09 10:10:08;;;;;;;21.47;20.27;;;32.60;79.00;;;;;;4971498;28;20459;-73
2021/09/09 10:12:35;;;;;;;21.53;20.27;;;32.80;78.10;;;;;;4971221;28;20938;-74
2021/09/09 10:15:06;;;;;;;21.80;20.27;;;33.60;75.80;;;;;;4971356;28;20949;-74
2021/09/09 10:17:34;;;;;;;21.20;19.70;;;33.30;75.80;;;;;;4971012;28;20542;-71
2021/09/09 10:20:28;;;;;;;19.97;18.87;;;33.40;76.00;;;;;;4970867;28;20598;-74
2021/09/09 10:23:06;;;;;;;20.57;19.47;;;33.20;74.50;;;;;;4971156;28;20459;-74
2021/09/09 10:25:47;;;;;;;20.83;19.80;;;32.80;75.70;;;;;;4971145;28;20455;-74
2021/09/09 10:28:43;;;;;;;21.40;20.20;;;32.40;76.70;;;;;;4971018;28;20470;-75
2021/09/09 10:31:13;;;;;;;23.10;21.60;;;32.40;76.20;;;;;;4971205;28;20495;-74
2021/09/09 10:33:45;;;;;;;20.93;19.93;;;32.30;76.60;;;;;;4971202;28;20462;-74
2021/09/09 10:36:38;;;;;;;21.73;20.03;;;31.50;79.50;;;;;;4970881;28;20966;-73
2021/09/09 10:39:05;;;;;;;21.30;19.90;;;31.30;80.50;;;;;;4971122;28;20447;-74
2021/09/09 10:41:32;;;;;;;21.13;19.83;;;31.40;80.00;;;;;;4971138;28;20455;-74
2021/09/09 10:44:00;;;;;;;22.40;21.30;;;30.90;81.30;;;;;;4971231;28;20464;-75
2021/09/09 10:46:34;;;;;;;21.73;20.53;;;30.80;81.50;;;;;;4970995;28;20456;-75
2021/09/09 10:49:12;;;;;;;20.10;19.10;;;30.20;83.40;;;;;;4971034;28;20452;-74
2021/09/09 10:51:39;;;;;;;22.20;21.10;;;29.50;85.20;;;;;;4971181;28;20550;-74
2021/09/09 10:54:15;;;;;;;19.47;18.37;;;29.20;86.80;;;;;;4971301;28;20459;-73
2021/09/09 10:56:43;;;;;;;21.13;19.43;;;29.30;87.20;;;;;;4970796;28;20478;-73
2021/09/09 10:59:14;;;;;;;19.50;18.60;;;30.10;84.90;;;;;;4970917;28;20487;-73
2021/09/09 11:01:45;;;;;;;19.00;18.20;;;31.50;80.20;;;;;;4970876;28;20530;-73
2021/09/09 11:04:26;;;;;;;21.20;20.20;;;33.00;73.80;;;;;;4970789;28;20550;-73
2021/09/09 11:06:54;;;;;;;21.07;19.93;;;34.00;71.60;;;;;;4971094;28;20448;-74
2021/09/09 11:09:20;;;;;;;19.57;18.53;;;34.50;70.30;;;;;;4972006;28;20443;-74
2021/09/09 11:11:56;;;;;;;20.17;18.83;;;35.00;67.10;;;;;;4974321;28;20455;-73
2021/09/09 11:14:23;;;;;;;19.47;18.20;;;34.40;68.10;;;;;;4974680;28;20466;-73
2021/09/09 11:16:52;;;;;;;19.77;18.50;;;34.40;67.80;;;;;;4974392;28;20455;-73
2021/09/09 11:19:21;;;;;;;20.37;19.37;;;34.30;67.70;;;;;;4974205;28;20451;-74
2021/09/09 11:21:48;;;;;;;20.27;19.20;;;34.50;67.30;;;;;;4974195;28;20965;-74
2021/09/09 11:24:16;;;;;;;21.67;20.73;;;35.00;66.50;;;;;;4973996;28;20989;-73
2021/09/09 11:26:45;;;;;;;21.00;19.73;;;35.80;64.40;;;;;;4973993;28;20891;-74
2021/09/09 11:29:12;;;;;;;21.33;20.00;;;35.90;63.30;;;;;;4974119;28;20451;-74
2021/09/09 11:31:45;;;;;;;21.50;20.50;;;35.60;63.00;;;;;;4974231;28;20447;-74
2021/09/09 11:34:13;;;;;;;19.43;18.63;;;36.00;62.40;;;;;;4974048;28;20456;-74
2021/09/09 11:36:42;;;;;;;20.23;19.23;;;36.30;62.20;;;;;;4974116;28;20455;-74
2021/09/09 11:39:11;;;;;;;21.47;20.27;;;36.40;60.00;;;;;;4974164;28;20474;-74
2021/09/09 11:41:39;;;;;;;19.60;18.80;;;35.80;60.60;;;;;;4974042;28;20855;-74
2021/09/09 11:44:08;;;;;;;20.03;19.07;;;34.70;62.00;;;;;;4974166;28;20831;-74
2021/09/09 11:46:36;;;;;;;19.63;18.83;;;33.80;65.00;;;;;;4973975;28;20855;-73
2021/09/09 11:49:05;;;;;;;19.30;18.40;;;33.30;66.70;;;;;;4973718;28;20451;-73
2021/09/09 11:51:35;;;;;;;19.97;19.10;;;33.40;66.10;;;;;;4973741;28;20455;-73
2021/09/09 11:54:04;;;;;;;19.27;18.37;;;33.60;66.10;;;;;;4973796;28;20495;-74
2021/09/09 11:56:31;;;;;;;20.57;19.47;;;33.40;66.60;;;;;;4973500;28;20444;-74
2021/09/09 11:59:02;;;;;;;20.80;19.60;;;33.30;67.20;;;;;;4973640;28;20459;-74
2021/09/09 12:01:30;;;;;;;19.40;18.17;;;33.20;67.60;;;;;;4973433;28;20777;-73
2021/09/09 12:03:59;;;;;;;19.30;18.30;;;33.40;66.70;;;;;;4973274;28;20574;-73
2021/09/09 12:06:26;;;;;;;19.90;19.00;;;34.20;66.40;;;;;;4973512;28;20807;-74
2021/09/09 12:08:54;;;;;;;20.70;19.70;;;35.60;62.20;;;;;;4973667;28;20455;-74
2021/09/09 12:11:21;;;;;;;20.97;19.97;;;36.10;59.00;;;;;;4973431;28;20467;-74
2021/09/09 12:13:48;;;;;;;20.40;19.50;;;35.80;59.00;;;;;;4973473;28;20502;-74
2021/09/09 12:16:21;;;;;;;21.60;20.43;;;35.50;60.20;;;;;;4973268;28;21239;-75
2021/09/09 12:18:51;;;;;;;20.10;19.20;;;35.20;59.70;;;;;;4973210;28;20458;-74
2021/09/09 12:21:21;;;;;;;18.53;17.50;;;34.10;62.50;;;;;;4972447;28;20531;-71
2021/09/09 12:24:10;;;;;;;18.30;17.30;;;33.40;63.60;;;;;;4973178;28;20467;-72
2021/09/09 12:26:38;;;;;;;19.87;18.67;;;33.60;63.30;;;;;;4973363;28;20522;-72
2021/09/09 12:29:15;;;;;;;19.93;19.03;;;34.30;62.00;;;;;;4973230;28;20460;-71
2021/09/09 12:31:42;;;;;;;19.30;18.30;;;34.50;60.90;;;;;;4972934;28;20447;-72
2021/09/09 12:34:12;;;;;;;18.77;17.87;;;34.80;59.80;;;;;;4973009;28;20456;-71